Time;durP1;ratioP1;P1;durP2;ratioP2;P2;SDS_P1;SDS_P2;PMS_P1;PMS_P2;Temp;Humidity;BMP_temperature;BMP_pressure;BME280_temperature;BME280_humidity;BME280_pressure;Samples;Min_cycle;Max_cycle;Signal;HPM_P1;HPM_P2
2021/09/24 00:00:21;;;;;;;11.77;3.28;;;;;;;;;;5007354;28;20053;-71
2021/09/24 00:02:47;;;;;;;5.40;2.53;;;;;;;;;;5021830;28;20038;-71
2021/09/24 00:05:13;;;;;;;5.43;2.65;;;;;;;;;;5021427;28;20488;-73
2021/09/24 00:07:39;;;;;;;7.97;3.25;;;;;;;;;;5022094;28;20029;-71
2021/09/24 00:10:05;;;;;;;5.75;2.40;;;;;;;;;;5022488;28;20041;-70
2021/09/24 00:12:41;;;;;;;7.32;2.83;;;;;;;;;;5021552;28;20026;-67
2021/09/24 00:15:09;;;;;;;6.47;2.50;;;;;;;;;;5022569;28;20053;-71
2021/09/24 00:17:35;;;;;;;13.23;2.95;;;;;;;;;;5021340;28;20041;-71
2021/09/24 00:20:01;;;;;;;7.55;2.78;;;;;;;;;;5020642;28;20026;-71
2021/09/24 00:22:27;;;;;;;8.25;2.33;;;;;;;;;;5021208;28;20041;-67
2021/09/24 00:24:53;;;;;;;7.28;2.80;;;;;;;;;;5021349;28;20053;-71
2021/09/24 00:27:19;;;;;;;6.78;2.28;;;;;;;;;;5021538;28;20060;-68
2021/09/24 00:29:45;;;;;;;8.32;2.95;;;;;;;;;;5021314;28;20056;-73
2021/09/24 00:32:11;;;;;;;4.10;3.17;;;;;;;;;;5021246;28;20080;-72
2021/09/24 00:34:37;;;;;;;7.45;3.25;;;;;;;;;;5020782;28;20089;-68
2021/09/24 00:37:04;;;;;;;7.35;2.53;;;;;;;;;;5021000;28;20026;-70
2021/09/24 00:39:30;;;;;;;6.63;3.10;;;;;;;;;;5021575;28;20053;-74
2021/09/24 00:41:56;;;;;;;5.82;2.50;;;;;;;;;;5021271;28;20053;-72
2021/09/24 00:44:26;;;;;;;5.63;2.65;;;;;;;;;;5019733;28;20485;-69
2021/09/24 00:46:52;;;;;;;5.85;2.40;;;;;;;;;;5021269;28;20022;-69
2021/09/24 00:49:18;;;;;;;6.95;3.25;;;;;;;;;;5020119;28;20543;-73
2021/09/24 00:51:44;;;;;;;10.68;3.72;;;;;;;;;;5006748;28;20052;-65
2021/09/24 00:54:10;;;;;;;8.55;2.90;;;;;;;;;;5021029;28;20022;-73
2021/09/24 00:56:36;;;;;;;9.60;3.17;;;;;;;;;;5022204;28;20021;-70
2021/09/24 00:59:02;;;;;;;9.85;2.78;;;;;;;;;;5021120;28;20058;-66
2021/09/24 01:01:28;;;;;;;8.60;2.67;;;;;;;;;;5020257;28;20045;-65
2021/09/24 01:03:55;;;;;;;5.65;2.63;;;;;;;;;;5001295;28;20034;-73
2021/09/24 01:06:21;;;;;;;5.07;2.40;;;;;;;;;;5001799;28;20038;-65
2021/09/24 01:08:47;;;;;;;3.13;2.40;;;;;;;;;;5021007;28;20021;-72
2021/09/24 01:11:13;;;;;;;3.55;2.10;;;;;;;;;;5019973;28;20029;-65
2021/09/24 01:13:39;;;;;;;4.18;2.42;;;;;;;;;;5010489;28;20121;-68
2021/09/24 01:16:06;;;;;;;4.63;2.75;;;;;;;;;;5001674;28;20027;-66
2021/09/24 01:18:32;;;;;;;7.22;2.50;;;;;;;;;;5010992;28;20088;-68
2021/09/24 01:20:59;;;;;;;4.75;3.22;;;;;;;;;;5020736;28;20030;-69
2021/09/24 01:23:25;;;;;;;4.72;3.10;;;;;;;;;;5021702;28;20022;-72
2021/09/24 01:25:51;;;;;;;6.15;3.00;;;;;;;;;;5021023;28;20065;-65
2021/09/24 01:28:17;;;;;;;10.60;2.90;;;;;;;;;;5020814;28;20500;-69
2021/09/24 01:30:44;;;;;;;5.78;2.90;;;;;;;;;;5020317;28;20037;-65
2021/09/24 01:33:13;;;;;;;5.88;3.28;;;;;;;;;;5020223;28;20024;-66
2021/09/24 01:35:39;;;;;;;7.05;3.55;;;;;;;;;;5020970;28;20033;-70
2021/09/24 01:38:05;;;;;;;8.52;3.97;;;;;;;;;;5021521;28;20033;-72
2021/09/24 01:40:31;;;;;;;6.30;3.40;;;;;;;;;;5021078;28;20028;-72
2021/09/24 01:42:57;;;;;;;7.30;3.35;;;;;;;;;;5020024;28;20086;-70
2021/09/24 01:45:23;;;;;;;10.05;3.38;;;;;;;;;;5020795;28;20041;-68
2021/09/24 01:47:49;;;;;;;5.70;3.28;;;;;;;;;;5020476;28;20022;-72
2021/09/24 01:50:15;;;;;;;5.20;3.20;;;;;;;;;;5010757;28;20030;-67
2021/09/24 01:52:42;;;;;;;6.82;3.30;;;;;;;;;;4999962;28;20023;-72
2021/09/24 01:55:09;;;;;;;7.40;3.20;;;;;;;;;;5001267;28;20037;-71
2021/09/24 01:57:36;;;;;;;6.90;4.03;;;;;;;;;;5018300;28;20038;-72
2021/09/24 02:00:03;;;;;;;5.28;3.63;;;;;;;;;;5019261;28;20081;-72
2021/09/24 02:02:29;;;;;;;8.48;3.58;;;;;;;;;;5019020;28;20045;-72
2021/09/24 02:04:55;;;;;;;7.07;4.10;;;;;;;;;;5020491;28;20026;-69
2021/09/24 02:07:21;;;;;;;7.78;4.25;;;;;;;;;;5024452;28;20030;-69
2021/09/24 02:09:47;;;;;;;7.47;3.80;;;;;;;;;;5024708;28;20473;-71
2021/09/24 02:12:13;;;;;;;8.77;4.20;;;;;;;;;;5024465;28;20026;-68
2021/09/24 02:14:39;;;;;;;6.07;4.30;;;;;;;;;;5024333;28;20097;-72
2021/09/24 02:17:05;;;;;;;7.40;4.20;;;;;;;;;;5022407;28;20030;-71
2021/09/24 02:19:32;;;;;;;6.43;3.92;;;;;;;;;;5016957;28;20030;-72
2021/09/24 02:21:59;;;;;;;8.38;4.63;;;;;;;;;;5024687;28;20109;-71
2021/09/24 02:24:25;;;;;;;6.18;4.13;;;;;;;;;;5025539;28;20034;-70
2021/09/24 02:26:51;;;;;;;5.43;4.10;;;;;;;;;;5023347;28;20104;-66
2021/09/24 02:29:17;;;;;;;7.70;4.88;;;;;;;;;;5023981;28;20026;-69
2021/09/24 02:31:43;;;;;;;8.27;5.13;;;;;;;;;;5015781;28;20031;-66
2021/09/24 02:34:10;;;;;;;7.68;5.05;;;;;;;;;;5004342;28;20026;-70
2021/09/24 02:36:37;;;;;;;8.48;5.57;;;;;;;;;;5004803;28;20030;-68
2021/09/24 02:39:04;;;;;;;8.40;5.07;;;;;;;;;;5024721;28;20033;-71
2021/09/24 02:41:30;;;;;;;7.90;4.85;;;;;;;;;;5023123;28;20481;-70
2021/09/24 02:43:56;;;;;;;9.77;5.40;;;;;;;;;;5023681;28;20034;-68
2021/09/24 02:46:22;;;;;;;7.93;5.07;;;;;;;;;;5023380;28;20032;-72
2021/09/24 02:48:48;;;;;;;13.65;6.43;;;;;;;;;;5023197;28;20060;-70
2021/09/24 02:51:14;;;;;;;11.32;5.32;;;;;;;;;;5023495;28;20048;-69
2021/09/24 02:53:41;;;;;;;8.75;5.30;;;;;;;;;;5024579;28;20022;-73
2021/09/24 02:56:07;;;;;;;9.98;5.18;;;;;;;;;;5023802;28;20026;-68
2021/09/24 02:58:33;;;;;;;11.10;5.15;;;;;;;;;;5024026;28;20033;-72
2021/09/24 03:00:59;;;;;;;8.07;5.05;;;;;;;;;;5015694;28;20026;-65
2021/09/24 03:03:26;;;;;;;8.85;5.82;;;;;;;;;;5014864;28;20110;-72
2021/09/24 03:05:52;;;;;;;10.40;5.22;;;;;;;;;;5023162;28;20061;-65
2021/09/24 03:08:18;;;;;;;9.60;5.55;;;;;;;;;;5018351;28;20094;-72
2021/09/24 03:10:44;;;;;;;9.50;5.00;;;;;;;;;;5019451;28;20057;-68
2021/09/24 03:13:10;;;;;;;9.00;4.45;;;;;;;;;;5020926;28;20532;-68
2021/09/24 03:15:37;;;;;;;10.52;5.72;;;;;;;;;;5021830;28;20559;-70
2021/09/24 03:18:03;;;;;;;9.43;5.03;;;;;;;;;;5021797;28;20022;-69
2021/09/24 03:20:30;;;;;;;9.60;4.65;;;;;;;;;;5023891;28;20102;-73
2021/09/24 03:22:56;;;;;;;9.88;5.10;;;;;;;;;;5023570;28;20058;-72
2021/09/24 03:25:22;;;;;;;10.90;4.97;;;;;;;;;;5022792;28;20026;-67
2021/09/24 03:27:49;;;;;;;12.30;5.47;;;;;;;;;;5022391;28;20488;-68
2021/09/24 03:30:15;;;;;;;8.40;5.53;;;;;;;;;;5021912;28;20524;-66
2021/09/24 03:32:41;;;;;;;10.75;5.07;;;;;;;;;;5022857;28;20022;-72
2021/09/24 03:35:08;;;;;;;8.52;5.38;;;;;;;;;;5023278;28;20026;-69
2021/09/24 03:37:34;;;;;;;8.00;4.60;;;;;;;;;;5021569;28;20034;-73
2021/09/24 03:40:00;;;;;;;7.00;4.68;;;;;;;;;;5022734;28;20396;-72
2021/09/24 03:42:26;;;;;;;6.80;4.18;;;;;;;;;;5022595;28;20037;-72
2021/09/24 03:44:52;;;;;;;9.18;6.25;;;;;;;;;;5003265;28;20037;-72
2021/09/24 03:47:19;;;;;;;8.00;5.05;;;;;;;;;;5008127;28;20099;-71
2021/09/24 03:49:45;;;;;;;8.15;4.70;;;;;;;;;;5023152;28;20023;-65
2021/09/24 03:52:11;;;;;;;9.18;4.93;;;;;;;;;;5022330;28;20037;-71
2021/09/24 03:54:37;;;;;;;9.57;4.78;;;;;;;;;;5022384;28;20475;-66
2021/09/24 03:57:04;;;;;;;9.48;5.00;;;;;;;;;;5019635;28;20030;-74
2021/09/24 03:59:30;;;;;;;7.32;4.22;;;;;;;;;;5006730;28;20087;-65
2021/09/24 04:01:56;;;;;;;6.22;4.28;;;;;;;;;;5002362;28;20051;-72
2021/09/24 04:04:22;;;;;;;8.55;4.35;;;;;;;;;;5002048;28;20037;-66
2021/09/24 04:06:48;;;;;;;8.02;4.30;;;;;;;;;;5002090;28;20044;-71
2021/09/24 04:09:14;;;;;;;7.50;4.32;;;;;;;;;;5016002;28;20044;-72
2021/09/24 04:11:40;;;;;;;8.27;4.22;;;;;;;;;;5021347;28;20526;-69
2021/09/24 04:14:07;;;;;;;9.50;4.63;;;;;;;;;;5022547;28;20018;-68
2021/09/24 04:16:33;;;;;;;7.60;4.30;;;;;;;;;;5021390;28;20029;-71
2021/09/24 04:18:59;;;;;;;7.50;4.35;;;;;;;;;;5021477;28;20029;-70
2021/09/24 04:21:25;;;;;;;6.03;4.10;;;;;;;;;;5021186;28;20099;-67
2021/09/24 04:23:51;;;;;;;6.90;4.18;;;;;;;;;;5021184;28;20053;-65
2021/09/24 04:26:17;;;;;;;6.57;4.40;;;;;;;;;;5020956;28;20116;-72
2021/09/24 04:28:44;;;;;;;8.07;4.20;;;;;;;;;;5020158;28;20145;-66
2021/09/24 04:31:10;;;;;;;6.07;4.32;;;;;;;;;;5020508;28;20113;-73
2021/09/24 04:33:36;;;;;;;8.10;4.30;;;;;;;;;;5019597;28;20033;-69
2021/09/24 04:36:02;;;;;;;6.00;3.75;;;;;;;;;;5020494;28;20041;-72
2021/09/24 04:38:28;;;;;;;5.88;3.80;;;;;;;;;;5020383;28;20025;-71
2021/09/24 04:40:54;;;;;;;8.50;4.28;;;;;;;;;;5020952;28;20030;-72
2021/09/24 04:43:20;;;;;;;6.88;3.85;;;;;;;;;;5021650;28;20025;-65
2021/09/24 04:45:50;;;;;;;5.95;3.55;;;;;;;;;;5022313;28;20084;-70
2021/09/24 04:48:16;;;;;;;5.22;3.70;;;;;;;;;;5020199;28;20025;-71
2021/09/24 04:50:42;;;;;;;5.28;4.18;;;;;;;;;;5018425;28;20014;-68
2021/09/24 04:53:08;;;;;;;5.35;4.07;;;;;;;;;;5003207;28;20045;-67
2021/09/24 04:55:34;;;;;;;8.45;3.83;;;;;;;;;;5002486;28;20033;-72
2021/09/24 04:58:00;;;;;;;5.75;3.50;;;;;;;;;;5017365;28;20026;-69
2021/09/24 05:00:26;;;;;;;6.38;3.80;;;;;;;;;;5022248;28;20018;-66
2021/09/24 05:02:52;;;;;;;8.32;4.22;;;;;;;;;;5021869;28;20042;-71
2021/09/24 05:05:18;;;;;;;6.65;3.75;;;;;;;;;;5021270;28;20029;-68
2021/09/24 05:07:46;;;;;;;7.88;4.15;;;;;;;;;;5020965;28;20041;-72
2021/09/24 05:10:12;;;;;;;5.70;3.60;;;;;;;;;;5020555;28;20030;-70
2021/09/24 05:12:38;;;;;;;7.75;3.70;;;;;;;;;;5020100;28;20032;-71
2021/09/24 05:15:04;;;;;;;8.05;3.63;;;;;;;;;;5020886;28;20048;-68
2021/09/24 05:17:31;;;;;;;4.30;3.72;;;;;;;;;;5021131;28;20041;-75
2021/09/24 05:19:58;;;;;;;6.75;3.60;;;;;;;;;;5004791;28;20026;-70
2021/09/24 05:22:24;;;;;;;5.22;3.47;;;;;;;;;;5001843;28;20538;-71
2021/09/24 05:24:50;;;;;;;6.57;3.60;;;;;;;;;;5001704;28;20405;-70
2021/09/24 05:27:16;;;;;;;6.70;3.72;;;;;;;;;;5019513;28;20030;-70
2021/09/24 05:29:42;;;;;;;5.53;3.05;;;;;;;;;;5020378;28;20061;-68
2021/09/24 05:32:08;;;;;;;4.85;3.20;;;;;;;;;;5022152;28;20049;-67
2021/09/24 05:34:35;;;;;;;5.60;3.33;;;;;;;;;;5022042;28;20094;-70
2021/09/24 05:37:01;;;;;;;4.93;3.40;;;;;;;;;;5017858;28;20033;-72
2021/09/24 05:39:27;;;;;;;4.95;3.40;;;;;;;;;;5021913;28;20409;-69
2021/09/24 05:41:53;;;;;;;6.47;3.13;;;;;;;;;;5022602;28;20029;-73
2021/09/24 05:44:19;;;;;;;4.40;3.13;;;;;;;;;;5023124;28;20431;-68
2021/09/24 05:46:45;;;;;;;5.10;3.20;;;;;;;;;;5022005;28;20026;-71
2021/09/24 05:49:14;;;;;;;6.40;3.17;;;;;;;;;;5023298;28;20030;-70
2021/09/24 05:51:40;;;;;;;5.70;3.25;;;;;;;;;;5021672;28;20022;-72
2021/09/24 05:54:06;;;;;;;6.82;3.83;;;;;;;;;;5021636;28;20017;-65
2021/09/24 05:56:32;;;;;;;4.65;2.92;;;;;;;;;;5022036;28;20029;-70
2021/09/24 05:58:58;;;;;;;3.38;2.70;;;;;;;;;;5020422;28;20048;-67
2021/09/24 06:01:24;;;;;;;4.80;2.92;;;;;;;;;;5012430;28;20030;-70
2021/09/24 06:03:51;;;;;;;4.18;2.67;;;;;;;;;;5003593;28;20066;-71
2021/09/24 06:06:18;;;;;;;4.10;2.83;;;;;;;;;;5015857;28;20378;-66
2021/09/24 06:08:49;;;;;;;4.32;2.53;;;;;;;;;;5021173;28;20049;-71
2021/09/24 06:11:15;;;;;;;4.10;3.13;;;;;;;;;;5010243;28;20026;-69
2021/09/24 06:13:42;;;;;;;4.93;3.10;;;;;;;;;;5001896;28;20122;-67
2021/09/24 06:16:08;;;;;;;3.03;2.50;;;;;;;;;;5002636;28;20050;-69
2021/09/24 06:18:34;;;;;;;5.15;3.30;;;;;;;;;;5002580;28;20022;-68
2021/09/24 06:21:02;;;;;;;3.40;2.60;;;;;;;;;;5001931;28;20033;-70
2021/09/24 06:23:28;;;;;;;6.25;3.40;;;;;;;;;;5002440;28;20033;-72
2021/09/24 06:26:00;;;;;;;5.70;2.92;;;;;;;;;;5012024;28;20026;-67
2021/09/24 06:28:27;;;;;;;4.10;3.00;;;;;;;;;;5021097;28;20030;-70
2021/09/24 06:30:53;;;;;;;5.22;2.80;;;;;;;;;;5021156;28;20034;-69
2021/09/24 06:33:22;;;;;;;4.18;3.17;;;;;;;;;;5021444;28;20057;-65
2021/09/24 06:35:48;;;;;;;5.03;2.90;;;;;;;;;;5021890;28;20052;-74
2021/09/24 06:38:15;;;;;;;5.10;3.10;;;;;;;;;;5020697;28;20033;-70
2021/09/24 06:40:44;;;;;;;6.07;3.63;;;;;;;;;;5020476;28;20032;-73
2021/09/24 06:43:10;;;;;;;4.07;2.65;;;;;;;;;;5022524;28;20030;-70
2021/09/24 06:45:43;;;;;;;5.10;3.00;;;;;;;;;;5022599;28;20026;-65
2021/09/24 06:48:09;;;;;;;6.38;3.00;;;;;;;;;;5023456;28;20469;-72
2021/09/24 06:50:36;;;;;;;4.40;3.00;;;;;;;;;;5021851;28;20026;-71
2021/09/24 06:53:02;;;;;;;7.90;3.03;;;;;;;;;;5018122;28;20033;-66
2021/09/24 06:55:28;;;;;;;4.43;2.80;;;;;;;;;;5022414;28;20042;-74
2021/09/24 06:57:55;;;;;;;3.92;2.35;;;;;;;;;;5020921;28;20397;-66
2021/09/24 07:00:24;;;;;;;5.13;2.70;;;;;;;;;;5019996;28;20080;-65
2021/09/24 07:02:50;;;;;;;5.30;2.97;;;;;;;;;;5023070;28;20038;-66
2021/09/24 07:05:16;;;;;;;3.72;2.17;;;;;;;;;;5017627;28;20049;-70
2021/09/24 07:07:44;;;;;;;3.63;2.60;;;;;;;;;;5022569;28;20584;-71
2021/09/24 07:10:11;;;;;;;3.90;2.40;;;;;;;;;;5027000;28;20124;-74
2021/09/24 07:12:37;;;;;;;6.20;2.80;;;;;;;;;;5018225;28;20019;-65
2021/09/24 07:15:04;;;;;;;4.57;2.70;;;;;;;;;;5020166;28;20053;-73
2021/09/24 07:17:30;;;;;;;6.78;3.28;;;;;;;;;;5022756;28;20042;-73
2021/09/24 07:19:56;;;;;;;6.05;2.85;;;;;;;;;;5020921;28;20029;-69
2021/09/24 07:22:23;;;;;;;4.07;3.22;;;;;;;;;;5008139;28;20029;-66
2021/09/24 07:24:50;;;;;;;3.90;2.20;;;;;;;;;;5008012;28;20026;-66
2021/09/24 07:27:16;;;;;;;4.95;2.40;;;;;;;;;;5008435;28;20026;-68
2021/09/24 07:29:42;;;;;;;4.00;2.40;;;;;;;;;;5026527;28;20097;-65
2021/09/24 07:32:08;;;;;;;4.38;2.33;;;;;;;;;;5009725;28;20022;-68
2021/09/24 07:34:35;;;;;;;4.30;2.08;;;;;;;;;;5008789;28;20026;-67
2021/09/24 07:37:01;;;;;;;4.88;2.30;;;;;;;;;;5018669;28;20079;-74
2021/09/24 07:39:27;;;;;;;2.58;1.90;;;;;;;;;;5026216;28;20543;-65
2021/09/24 07:41:53;;;;;;;3.47;2.75;;;;;;;;;;5027825;28;20034;-66
2021/09/24 07:44:19;;;;;;;3.22;2.03;;;;;;;;;;5024140;28;20055;-72
2021/09/24 07:46:47;;;;;;;3.33;2.03;;;;;;;;;;5020959;28;20033;-70
2021/09/24 07:49:13;;;;;;;2.40;1.85;;;;;;;;;;5010606;28;20017;-66
2021/09/24 07:51:39;;;;;;;2.08;1.70;;;;;;;;;;5026415;28;20025;-74
2021/09/24 07:54:05;;;;;;;3.60;2.00;;;;;;;;;;5023572;28;20026;-71
2021/09/24 07:56:31;;;;;;;1.92;1.70;;;;;;;;;;5017494;28;20098;-65
2021/09/24 07:58:57;;;;;;;2.22;1.80;;;;;;;;;;5009296;28;20045;-66
2021/09/24 08:01:25;;;;;;;2.30;1.88;;;;;;;;;;5007881;28;20037;-65
2021/09/24 08:03:51;;;;;;;3.95;1.95;;;;;;;;;;5011438;28;20496;-66
2021/09/24 08:06:19;;;;;;;1.60;1.50;;;;;;;;;;5008991;28;20044;-69
2021/09/24 08:08:45;;;;;;;2.75;1.70;;;;;;;;;;5013143;28;20101;-66
2021/09/24 08:11:12;;;;;;;2.00;1.70;;;;;;;;;;5023618;28;20026;-66
2021/09/24 08:13:38;;;;;;;3.65;2.03;;;;;;;;;;5027701;28;20046;-66
2021/09/24 08:16:04;;;;;;;2.10;1.52;;;;;;;;;;5027102;28;20033;-65
2021/09/24 08:18:31;;;;;;;3.47;2.67;;;;;;;;;;5026881;28;20088;-69
2021/09/24 08:20:59;;;;;;;1.80;1.67;;;;;;;;;;5019448;28;20030;-69
2021/09/24 08:23:25;;;;;;;3.10;1.50;;;;;;;;;;5025090;28;20047;-65
2021/09/24 08:25:52;;;;;;;2.50;1.58;;;;;;;;;;5025692;28;20057;-65
2021/09/24 08:28:18;;;;;;;2.85;1.73;;;;;;;;;;5026444;28;20049;-70
2021/09/24 08:30:44;;;;;;;2.63;1.63;;;;;;;;;;5026906;28;20025;-66
2021/09/24 08:33:10;;;;;;;1.63;1.40;;;;;;;;;;5023768;28;20026;-66
2021/09/24 08:35:36;;;;;;;1.73;1.60;;;;;;;;;;5026266;28;20022;-66
2021/09/24 08:38:03;;;;;;;2.25;1.50;;;;;;;;;;5026679;28;20520;-68
2021/09/24 08:40:30;;;;;;;2.92;1.70;;;;;;;;;;5025908;28;20030;-68
2021/09/24 08:42:56;;;;;;;1.92;1.45;;;;;;;;;;5026714;28;20081;-66
2021/09/24 08:45:24;;;;;;;1.92;1.40;;;;;;;;;;5026892;28;20054;-66
2021/09/24 08:47:53;;;;;;;4.13;2.00;;;;;;;;;;5021639;28;20046;-66
2021/09/24 08:50:20;;;;;;;5.60;1.80;;;;;;;;;;5012103;28;20029;-69
2021/09/24 08:52:46;;;;;;;3.45;1.90;;;;;;;;;;5023335;28;20022;-69
2021/09/24 08:55:12;;;;;;;4.05;1.98;;;;;;;;;;5021702;28;20030;-70
2021/09/24 08:57:40;;;;;;;3.60;1.42;;;;;;;;;;5021027;28;20504;-71
2021/09/24 09:00:07;;;;;;;1.70;1.60;;;;;;;;;;5016212;28;20029;-73
2021/09/24 09:02:52;;;;;;;1.45;1.35;;;;;;;;;;5013040;28;20129;-71
2021/09/24 09:05:19;;;;;;;2.42;1.55;;;;;;;;;;5009443;28;20737;-75
2021/09/24 09:07:45;;;;;;;2.83;1.60;;;;;;;;;;5002562;28;20032;-73
2021/09/24 09:10:11;;;;;;;4.45;1.63;;;;;;;;;;5008168;28;20037;-72
2021/09/24 09:12:38;;;;;;;1.35;1.25;;;;;;;;;;5003496;28;20021;-74
2021/09/24 09:15:06;;;;;;;1.58;1.42;;;;;;;;;;5005424;28;20030;-77
2021/09/24 09:17:34;;;;;;;1.90;1.60;;;;;;;;;;5006553;28;20034;-73
2021/09/24 09:20:15;;;;;;;2.30;1.63;;;;;;;;;;5003349;28;20034;-73
2021/09/24 09:22:42;;;;;;;3.53;1.50;;;;;;;;;;4997803;28;20034;-73
2021/09/24 09:25:34;;;;;;;1.30;1.20;;;;;;;;;;4991691;28;20034;-74
2021/09/24 09:28:02;;;;;;;1.85;1.48;;;;;;;;;;4999888;28;20123;-74
2021/09/24 09:30:29;;;;;;;1.65;1.40;;;;;;;;;;5000590;28;20110;-75
2021/09/24 09:32:58;;;;;;;1.60;1.50;;;;;;;;;;5009188;28;20034;-75
2021/09/24 09:35:24;;;;;;;2.97;1.40;;;;;;;;;;5009385;28;20041;-75
2021/09/24 09:37:50;;;;;;;1.67;1.58;;;;;;;;;;5007537;28;20045;-75
2021/09/24 09:40:20;;;;;;;3.33;1.67;;;;;;;;;;5007863;28;20053;-76
2021/09/24 09:42:47;;;;;;;2.58;1.70;;;;;;;;;;4997556;28;20044;-74
2021/09/24 09:45:15;;;;;;;1.80;1.70;;;;;;;;;;5008487;28;20044;-73
2021/09/24 09:47:43;;;;;;;1.70;1.60;;;;;;;;;;5011157;28;20036;-74
2021/09/24 09:50:11;;;;;;;2.75;1.80;;;;;;;;;;5006482;28;20463;-74
2021/09/24 09:52:55;;;;;;;1.80;1.65;;;;;;;;;;5002327;28;20105;-73
2021/09/24 09:55:22;;;;;;;2.17;1.90;;;;;;;;;;5008799;28;20037;-71
2021/09/24 09:57:52;;;;;;;1.80;1.60;;;;;;;;;;5006727;28;20040;-75
2021/09/24 10:00:18;;;;;;;2.50;1.60;;;;;;;;;;5007165;28;20038;-73
2021/09/24 10:02:47;;;;;;;1.50;1.40;;;;;;;;;;5009567;28;20041;-72
2021/09/24 10:05:31;;;;;;;2.20;1.80;;;;;;;;;;5010560;28;20511;-74
2021/09/24 10:07:58;;;;;;;1.90;1.70;;;;;;;;;;5010382;28;20082;-70
2021/09/24 10:10:24;;;;;;;3.75;1.90;;;;;;;;;;5002376;28;20055;-74
2021/09/24 10:12:51;;;;;;;3.05;1.98;;;;;;;;;;5008253;28;20030;-75
2021/09/24 10:15:17;;;;;;;1.55;1.45;;;;;;;;;;5004861;28;20029;-74
2021/09/24 10:17:44;;;;;;;1.92;1.50;;;;;;;;;;5007050;28;20034;-73
2021/09/24 10:20:11;;;;;;;2.05;1.40;;;;;;;;;;5013246;28;20026;-69
2021/09/24 10:22:38;;;;;;;1.70;1.60;;;;;;;;;;5017841;28;20026;-73
2021/09/24 10:25:04;;;;;;;3.72;1.80;;;;;;;;;;5014114;28;20037;-74
2021/09/24 10:27:38;;;;;;;2.45;1.92;;;;;;;;;;5006868;28;20080;-72
2021/09/24 10:30:09;;;;;;;2.42;1.70;;;;;;;;;;5021864;28;20094;-71
2021/09/24 10:32:36;;;;;;;2.15;1.80;;;;;;;;;;5017582;28;20101;-74
2021/09/24 10:35:02;;;;;;;2.20;1.50;;;;;;;;;;5019955;28;20802;-74
2021/09/24 10:37:29;;;;;;;1.83;1.50;;;;;;;;;;5010727;28;20034;-71
2021/09/24 10:39:59;;;;;;;1.60;1.50;;;;;;;;;;5011119;28;20030;-74
2021/09/24 10:42:35;;;;;;;2.15;1.60;;;;;;;;;;5019350;28;20037;-73
2021/09/24 10:45:07;;;;;;;1.55;1.45;;;;;;;;;;5010798;28;20022;-68
2021/09/24 10:47:52;;;;;;;2.03;1.50;;;;;;;;;;5018678;28;20064;-72
2021/09/24 10:50:34;;;;;;;1.60;1.50;;;;;;;;;;5018194;28;20487;-71
2021/09/24 10:53:09;;;;;;;2.00;1.70;;;;;;;;;;5007501;28;20022;-67
2021/09/24 10:55:36;;;;;;;1.90;1.80;;;;;;;;;;5009751;28;20065;-68
2021/09/24 10:58:03;;;;;;;1.75;1.65;;;;;;;;;;5010140;28;20088;-76
2021/09/24 11:00:30;;;;;;;2.17;1.70;;;;;;;;;;5008696;28;20183;-71
2021/09/24 11:03:09;;;;;;;2.38;1.67;;;;;;;;;;4999849;28;20049;-75
2021/09/24 11:05:57;;;;;;;1.80;1.52;;;;;;;;;;5002722;28;20388;-72
2021/09/24 11:08:38;;;;;;;1.67;1.58;;;;;;;;;;5018205;28;20048;-74
2021/09/24 11:11:16;;;;;;;2.53;1.70;;;;;;;;;;5014859;28;20127;-72
2021/09/24 11:13:49;;;;;;;1.60;1.50;;;;;;;;;;5014354;28;20030;-71
2021/09/24 11:16:22;;;;;;;1.77;1.67;;;;;;;;;;5019042;28;20040;-74
2021/09/24 11:18:50;;;;;;;2.33;2.13;;;;;;;;;;4998129;28;20095;-72
2021/09/24 11:21:17;;;;;;;5.20;2.75;;;;;;;;;;5011798;28;20081;-74
2021/09/24 11:23:43;;;;;;;3.10;1.70;;;;;;;;;;5010806;28;20084;-72
2021/09/24 11:26:19;;;;;;;1.70;1.60;;;;;;;;;;5016635;28;20041;-71
2021/09/24 11:28:46;;;;;;;2.20;1.50;;;;;;;;;;5011471;28;20587;-70
2021/09/24 11:31:13;;;;;;;1.48;1.38;;;;;;;;;;5012350;28;20038;-75
2021/09/24 11:33:45;;;;;;;7.15;3.03;;;;;;;;;;5012915;28;20025;-73
2021/09/24 11:36:12;;;;;;;5.32;3.10;;;;;;;;;;5011167;28;20037;-73
2021/09/24 11:38:38;;;;;;;3.67;2.45;;;;;;;;;;5014999;28;20034;-71
2021/09/24 11:41:05;;;;;;;2.78;2.30;;;;;;;;;;5012823;28;20030;-74
2021/09/24 11:43:36;;;;;;;2.30;1.75;;;;;;;;;;5012856;28;20022;-74
2021/09/24 11:46:10;;;;;;;1.50;1.40;;;;;;;;;;5013284;28;20022;-76
2021/09/24 11:48:37;;;;;;;1.70;1.60;;;;;;;;;;5005451;28;20060;-71
2021/09/24 11:51:17;;;;;;;1.40;1.30;;;;;;;;;;5003084;28;20069;-72
2021/09/24 11:53:47;;;;;;;1.85;1.60;;;;;;;;;;5015427;28;20029;-74
2021/09/24 11:56:17;;;;;;;2.00;1.70;;;;;;;;;;5015947;28;20038;-73
2021/09/24 11:58:43;;;;;;;1.95;1.80;;;;;;;;;;5015774;28;20108;-71
2021/09/24 12:01:11;;;;;;;2.03;1.70;;;;;;;;;;5016034;28;20034;-71
2021/09/24 12:03:38;;;;;;;3.42;2.17;;;;;;;;;;5014351;28;20120;-73
2021/09/24 12:06:14;;;;;;;2.88;2.10;;;;;;;;;;5015914;28;20046;-72
2021/09/24 12:08:48;;;;;;;2.75;1.83;;;;;;;;;;4997243;28;20057;-69
2021/09/24 12:11:25;;;;;;;3.03;1.90;;;;;;;;;;5012215;28;20559;-74
2021/09/24 12:13:52;;;;;;;2.40;1.95;;;;;;;;;;5016742;28;20049;-72
2021/09/24 12:16:23;;;;;;;3.58;1.92;;;;;;;;;;5014010;28;20042;-73
2021/09/24 12:18:49;;;;;;;3.60;2.00;;;;;;;;;;5016445;28;20508;-73
2021/09/24 12:21:16;;;;;;;2.45;2.03;;;;;;;;;;5013089;28;20034;-72
2021/09/24 12:23:43;;;;;;;3.75;1.83;;;;;;;;;;5004815;28;20025;-75
2021/09/24 12:26:09;;;;;;;2.55;1.90;;;;;;;;;;5016161;28;20042;-75
2021/09/24 12:28:36;;;;;;;2.45;2.00;;;;;;;;;;5016014;28;20068;-70
2021/09/24 12:31:03;;;;;;;4.28;2.20;;;;;;;;;;5012777;28;20097;-73
2021/09/24 12:33:29;;;;;;;3.63;2.22;;;;;;;;;;5011743;28;20034;-69
2021/09/24 12:35:59;;;;;;;2.60;2.20;;;;;;;;;;5019622;28;20037;-70
2021/09/24 12:38:27;;;;;;;3.30;2.25;;;;;;;;;;5025769;28;20025;-70
2021/09/24 12:41:10;;;;;;;2.72;2.00;;;;;;;;;;5020179;28;20079;-70
2021/09/24 12:43:37;;;;;;;2.45;1.92;;;;;;;;;;5022396;28;20026;-69
2021/09/24 12:46:04;;;;;;;2.67;2.20;;;;;;;;;;5024899;28;20027;-66
2021/09/24 12:48:35;;;;;;;5.07;2.50;;;;;;;;;;5011088;28;20037;-67
2021/09/24 12:51:01;;;;;;;3.20;2.45;;;;;;;;;;5017541;28;20089;-70
2021/09/24 12:53:27;;;;;;;3.33;3.03;;;;;;;;;;5016962;28;20022;-66
2021/09/24 12:55:57;;;;;;;3.63;3.00;;;;;;;;;;5021397;28;20041;-74
2021/09/24 12:58:29;;;;;;;3.83;3.20;;;;;;;;;;5014364;28;20026;-75
2021/09/24 13:00:56;;;;;;;3.45;3.15;;;;;;;;;;5003098;28;20022;-73
2021/09/24 13:03:23;;;;;;;4.75;3.15;;;;;;;;;;5009224;28;20034;-75
2021/09/24 13:05:52;;;;;;;3.80;3.05;;;;;;;;;;5012038;28;20030;-73
2021/09/24 13:08:19;;;;;;;3.88;3.28;;;;;;;;;;5001439;28;20049;-71
2021/09/24 13:10:46;;;;;;;3.78;3.40;;;;;;;;;;5009928;28;20023;-73
2021/09/24 13:13:12;;;;;;;4.55;3.15;;;;;;;;;;5001584;28;20029;-72
2021/09/24 13:15:38;;;;;;;4.65;3.20;;;;;;;;;;4997019;28;20367;-73
2021/09/24 13:18:07;;;;;;;4.88;2.92;;;;;;;;;;5003987;28;20037;-74
2021/09/24 13:20:33;;;;;;;6.68;3.35;;;;;;;;;;5015217;28;20036;-72
2021/09/24 13:22:59;;;;;;;4.05;3.20;;;;;;;;;;5013949;28;20033;-73
2021/09/24 13:25:26;;;;;;;4.05;2.92;;;;;;;;;;5014630;28;20511;-72
2021/09/24 13:27:52;;;;;;;4.07;2.72;;;;;;;;;;5009126;28;20030;-73
2021/09/24 13:30:18;;;;;;;4.10;2.90;;;;;;;;;;5010963;28;20662;-73
2021/09/24 13:32:44;;;;;;;3.90;3.40;;;;;;;;;;5006001;28;20014;-73
2021/09/24 13:35:10;;;;;;;4.40;3.10;;;;;;;;;;5007676;28;20026;-73
2021/09/24 13:37:36;;;;;;;3.97;3.38;;;;;;;;;;5009116;28;20113;-74
2021/09/24 13:40:04;;;;;;;4.30;3.00;;;;;;;;;;5010578;28;20030;-74
2021/09/24 13:42:30;;;;;;;2.97;2.50;;;;;;;;;;5015113;28;20046;-71
2021/09/24 13:44:56;;;;;;;3.00;2.15;;;;;;;;;;5009821;28;20065;-66
2021/09/24 13:47:22;;;;;;;4.03;2.53;;;;;;;;;;5011137;28;20088;-73
2021/09/24 13:49:48;;;;;;;3.60;2.88;;;;;;;;;;5014284;28;20034;-74
2021/09/24 13:52:14;;;;;;;2.80;2.50;;;;;;;;;;5010206;28;20030;-66
2021/09/24 13:54:40;;;;;;;2.58;2.35;;;;;;;;;;5012334;28;20022;-73
2021/09/24 13:57:06;;;;;;;2.65;2.25;;;;;;;;;;5020983;28;20034;-68
2021/09/24 13:59:33;;;;;;;3.75;2.00;;;;;;;;;;5024117;28;20097;-67
2021/09/24 14:01:59;;;;;;;2.53;2.33;;;;;;;;;;5024633;28;20048;-68
2021/09/24 14:04:26;;;;;;;3.17;1.90;;;;;;;;;;5016995;28;20026;-74
2021/09/24 14:06:52;;;;;;;2.75;1.80;;;;;;;;;;5028440;28;20041;-67
2021/09/24 14:09:18;;;;;;;1.95;1.73;;;;;;;;;;5011218;28;20417;-68
2021/09/24 14:11:44;;;;;;;2.00;1.80;;;;;;;;;;5025043;28;20025;-69
2021/09/24 14:14:10;;;;;;;3.38;1.75;;;;;;;;;;5027821;28;20082;-71
2021/09/24 14:16:36;;;;;;;3.58;2.00;;;;;;;;;;5018439;28;20037;-72
2021/09/24 14:19:03;;;;;;;2.55;1.77;;;;;;;;;;5005045;28;20025;-73
2021/09/24 14:21:30;;;;;;;2.10;1.90;;;;;;;;;;5010395;28;20064;-67
2021/09/24 14:23:56;;;;;;;2.88;1.90;;;;;;;;;;5016401;28;20129;-74
2021/09/24 14:26:22;;;;;;;2.47;1.80;;;;;;;;;;5019769;28;20033;-67
2021/09/24 14:28:48;;;;;;;2.85;2.20;;;;;;;;;;5026250;28;20469;-67
2021/09/24 14:31:15;;;;;;;1.70;1.60;;;;;;;;;;5024211;28;20018;-68
2021/09/24 14:33:41;;;;;;;2.70;1.85;;;;;;;;;;5028607;28;20018;-70
2021/09/24 14:36:07;;;;;;;2.22;2.03;;;;;;;;;;5028652;28;20033;-68
2021/09/24 14:38:33;;;;;;;2.50;1.90;;;;;;;;;;5013937;28;20030;-67
2021/09/24 14:40:59;;;;;;;3.42;1.90;;;;;;;;;;5010568;28;20053;-70
2021/09/24 14:43:26;;;;;;;2.85;1.90;;;;;;;;;;5026941;28;20105;-67